Accueil
METAR-TAF:

METAR-TAF

Aéroports :

Aéroport de Cannes - Mandelieu

Cannes, France

latitude: 43-33N, longitude: 006-57E, altitude: 3 m

Observation

Le bulletin a été fait il y a 37 minutes, à 14:30 UTC
Vent 5 kt de est/sud-est, variant entre est et sud
Température 19°C
Humidité 56%
Pression 1016 hPa
Visibilité 10 km ou plus
pas de nuages en-dessous de 1500 mètres et pas de cumulonimbus.

METAR: LFMD 281430Z AUTO 12005KT 080V170 CAVOK 19/10 Q1016 TEMPO 26015G25KT

Heure: 16:07 (15:07 UTC)

Prévision

Le bulletin a été fait il y a 1 heure et 7 minutes, à 14:00 UTC
Prévision valable du 28 à 15 UTC au 29 à 15 UTC
Vent 4 kt de sud/sud-est
Visibilité 10 km ou plus
pas de nuages en-dessous de 1500 mètres et pas de cumulonimbus.
Probabilité 30% :
Temporairement
du 28 à 17 UTC au 29 à 03 UTC
Vent 15 kt de ouest avec des rafales jusqu'à 25 kt

TAF: LFMD 281400Z 2815/2915 16004KT CAVOK PROB30 TEMPO 2817/2903 26015G25KT

Observations et prévisions météorologiques de plus de 4000 aéroports (messages METAR et TAF).

Les stations disponibles sont représentées par des disques jaunes et rouges sur la carte.

Passer la souris dessus pour voir le nom de la station.

Cliquer dessus pour voir les observations et prévisions météorologiques.

Pour changer de carte: cliquez sur les boutons verts avec une croix noire pour zoomer, sur le bouton vert avec un tiret pour effectuer un zoom arrière, ou sur les flèches vertes pour les cartes adjacentes.


METAR-TAF: